createdAt,value
2018-06-13T00:04:06.816Z,14.70
2018-06-13T00:09:10.023Z,14.70
2018-06-13T00:14:13.195Z,14.70
2018-06-13T00:19:16.409Z,14.70
2018-06-13T00:24:19.618Z,14.60
2018-06-13T00:29:22.797Z,14.60
2018-06-13T00:34:26.104Z,14.50
2018-06-13T00:39:29.310Z,14.50
2018-06-13T00:44:32.516Z,14.40
2018-06-13T00:49:35.699Z,14.40
2018-06-13T00:54:38.898Z,14.50
2018-06-13T00:59:42.097Z,14.60
2018-06-13T01:04:45.301Z,14.70
2018-06-13T01:09:48.524Z,14.60
2018-06-13T01:14:52.390Z,14.60
2018-06-13T01:19:55.637Z,14.60
2018-06-13T01:24:58.844Z,14.60
2018-06-13T01:30:02.064Z,14.50
2018-06-13T01:35:05.443Z,14.60
2018-06-13T01:40:08.657Z,14.60
2018-06-13T01:45:11.833Z,14.50
2018-06-13T01:50:15.028Z,14.60
2018-06-13T01:55:18.186Z,14.50
2018-06-13T02:00:21.386Z,14.60
2018-06-13T02:05:24.652Z,14.50
2018-06-13T02:10:27.889Z,14.60
2018-06-13T02:15:31.070Z,14.60
2018-06-13T02:20:34.277Z,14.60
2018-06-13T02:25:37.469Z,14.60
2018-06-13T02:30:40.677Z,14.60
2018-06-13T02:35:43.857Z,14.50
2018-06-13T02:40:47.577Z,14.60
2018-06-13T02:45:50.794Z,14.60
2018-06-13T02:50:53.977Z,14.50
2018-06-13T02:55:57.174Z,14.50
2018-06-13T03:01:00.395Z,14.50
2018-06-13T03:06:22.349Z,14.60
2018-06-13T03:11:25.618Z,14.60
2018-06-13T03:16:28.819Z,14.50
2018-06-13T03:21:31.992Z,14.60
2018-06-13T03:26:35.170Z,14.50
2018-06-13T03:31:38.337Z,14.50
2018-06-13T03:36:41.547Z,14.50
2018-06-13T03:41:44.782Z,14.50
2018-06-13T03:46:48.018Z,14.40
2018-06-13T03:51:52.255Z,14.30
2018-06-13T03:56:55.512Z,14.40
2018-06-13T04:01:58.747Z,14.40
2018-06-13T04:07:02.016Z,14.40
2018-06-13T04:12:05.180Z,14.50
2018-06-13T04:17:08.378Z,14.40
2018-06-13T04:22:11.573Z,14.30
2018-06-13T04:27:14.797Z,14.40
2018-06-13T04:32:17.997Z,14.30
2018-06-13T04:37:21.199Z,14.40
2018-06-13T04:42:24.365Z,14.40
2018-06-13T04:47:27.602Z,14.30
2018-06-13T04:52:30.781Z,14.40
2018-06-13T04:57:33.965Z,14.20
2018-06-13T05:02:37.137Z,14.40
2018-06-13T05:07:40.329Z,14.40
2018-06-13T05:12:43.505Z,14.40
2018-06-13T05:17:46.716Z,14.40
2018-06-13T05:22:49.885Z,14.40
2018-06-13T05:27:53.143Z,14.30
2018-06-13T05:32:56.358Z,14.50
2018-06-13T05:37:59.602Z,14.60
2018-06-13T05:43:02.789Z,14.70
2018-06-13T05:48:06.345Z,14.80
2018-06-13T05:53:10.758Z,14.80
2018-06-13T05:58:13.962Z,14.70
2018-06-13T06:03:17.116Z,14.80
2018-06-13T06:08:20.318Z,14.70
2018-06-13T06:13:23.572Z,14.70
2018-06-13T06:18:27.773Z,14.80
2018-06-13T06:23:31.049Z,15.00
2018-06-13T06:28:34.214Z,15.00
2018-06-13T06:33:37.410Z,15.00
2018-06-13T06:38:40.681Z,15.10
2018-06-13T06:43:47.414Z,15.10
2018-06-13T06:48:50.630Z,15.20
2018-06-13T06:53:53.821Z,15.10
2018-06-13T06:58:57.045Z,15.40
2018-06-13T07:04:00.242Z,15.30
2018-06-13T07:09:03.961Z,15.20
2018-06-13T07:14:07.159Z,15.00
2018-06-13T07:19:10.356Z,15.20
2018-06-13T07:24:19.672Z,15.40
2018-06-13T07:29:22.902Z,15.40
2018-06-13T07:34:26.088Z,15.40
2018-06-13T07:39:29.742Z,15.50
2018-06-13T07:44:32.947Z,15.70
2018-06-13T07:49:38.273Z,15.70
2018-06-13T07:54:41.438Z,15.70
2018-06-13T07:59:44.733Z,15.80
2018-06-13T08:04:48.010Z,15.80
2018-06-13T08:09:51.193Z,15.90
2018-06-13T08:14:54.414Z,16.10
2018-06-13T08:19:57.624Z,16.00
2018-06-13T08:25:00.802Z,15.90
2018-06-13T08:35:07.013Z,15.90
2018-06-13T08:40:10.234Z,15.80
2018-06-13T08:45:13.511Z,15.80
2018-06-13T08:50:16.702Z,15.80
2018-06-13T08:55:19.935Z,15.90
2018-06-13T09:00:23.118Z,15.80
2018-06-13T09:05:26.340Z,15.80
2018-06-13T09:10:29.539Z,15.80
2018-06-13T09:15:32.831Z,15.90
2018-06-13T09:20:36.520Z,16.00
2018-06-13T09:25:39.833Z,16.00
2018-06-13T09:30:43.006Z,16.10
2018-06-13T09:35:46.202Z,16.00
2018-06-13T09:40:49.395Z,15.80
2018-06-13T09:46:03.270Z,15.80
2018-06-13T09:50:55.838Z,15.70
2018-06-13T09:55:59.021Z,15.80
2018-06-13T10:01:07.490Z,15.60
2018-06-13T10:06:10.693Z,15.80
2018-06-13T10:11:13.913Z,16.00
2018-06-13T10:16:17.139Z,16.20
2018-06-13T10:21:20.391Z,16.50
2018-06-13T10:26:23.630Z,16.60
2018-06-13T10:31:26.843Z,16.60
2018-06-13T10:36:30.036Z,16.70
2018-06-13T10:41:33.213Z,16.70
2018-06-13T10:46:36.391Z,16.80
2018-06-13T10:51:39.594Z,16.80
2018-06-13T10:56:42.788Z,16.90
2018-06-13T11:01:46.018Z,17.00
2018-06-13T11:06:49.185Z,17.00
2018-06-13T11:11:52.454Z,16.80
2018-06-13T11:16:55.698Z,16.40
2018-06-13T11:22:00.216Z,16.20
2018-06-13T11:27:03.574Z,16.10
2018-06-13T11:32:07.765Z,16.10
2018-06-13T11:37:10.966Z,16.10
2018-06-13T11:42:15.293Z,16.20
2018-06-13T11:47:18.562Z,16.40
2018-06-13T11:52:21.785Z,16.60
2018-06-13T11:57:25.000Z,16.80
2018-06-13T12:02:28.234Z,16.80
2018-06-13T12:07:31.460Z,17.00
2018-06-13T12:12:34.665Z,17.40
2018-06-13T12:17:37.970Z,17.60
2018-06-13T12:22:41.199Z,17.60
2018-06-13T12:32:49.435Z,17.60
2018-06-13T12:37:52.639Z,17.50
2018-06-13T12:42:55.813Z,17.70
2018-06-13T12:47:59.004Z,17.90
2018-06-13T12:53:02.166Z,17.70
2018-06-13T12:58:05.386Z,17.70
2018-06-13T13:03:08.581Z,17.80
2018-06-13T13:08:11.797Z,17.90
2018-06-13T13:13:15.123Z,17.60
2018-06-13T13:18:18.325Z,17.40
2018-06-13T13:23:21.527Z,17.40
2018-06-13T13:28:24.709Z,17.60
2018-06-13T13:33:27.974Z,17.90
2018-06-13T13:38:31.189Z,18.10
2018-06-13T13:53:40.386Z,18.40
2018-06-13T13:58:43.662Z,18.10
2018-06-13T14:03:46.914Z,17.90
2018-06-13T14:08:50.225Z,17.90
2018-06-13T14:13:53.392Z,18.00
2018-06-13T14:18:56.571Z,18.10
2018-06-13T14:23:59.763Z,18.10
2018-06-13T14:29:06.272Z,18.00
2018-06-13T14:34:09.441Z,18.40
2018-06-13T14:39:12.770Z,18.60
2018-06-13T14:44:16.393Z,18.60
2018-06-13T14:49:19.576Z,18.80
2018-06-13T14:54:22.855Z,18.40
2018-06-13T14:59:26.050Z,18.50
2018-06-13T15:04:32.613Z,18.40
2018-06-13T15:09:39.498Z,18.30
2018-06-13T15:14:42.761Z,18.20
2018-06-13T15:19:46.006Z,18.40
2018-06-13T15:24:49.336Z,18.90
2018-06-13T15:29:53.589Z,18.90
2018-06-13T15:34:57.418Z,19.10
2018-06-13T15:40:00.670Z,19.10
2018-06-13T15:45:03.987Z,18.90
2018-06-13T15:50:08.275Z,18.40
2018-06-13T15:55:11.465Z,18.30
2018-06-13T16:00:14.701Z,18.20
2018-06-13T16:05:17.989Z,18.10
2018-06-13T16:10:21.288Z,18.00
2018-06-13T16:15:24.511Z,17.80
2018-06-13T16:20:27.705Z,17.80
2018-06-13T16:25:31.041Z,17.80
2018-06-13T16:30:34.370Z,17.80
2018-06-13T16:35:39.644Z,17.90
2018-06-13T16:40:42.846Z,17.90
2018-06-13T16:45:46.110Z,17.70
2018-06-13T16:51:00.796Z,17.70
2018-06-13T16:56:04.994Z,17.70
2018-06-13T17:01:08.782Z,17.50
2018-06-13T17:06:11.969Z,17.60
2018-06-13T17:11:15.202Z,17.60
2018-06-13T17:16:18.470Z,17.60
2018-06-13T17:21:21.867Z,17.60
2018-06-13T17:26:25.217Z,17.60
2018-06-13T17:31:29.261Z,17.60
2018-06-13T17:36:32.453Z,17.50
2018-06-13T17:41:36.436Z,17.50
2018-06-13T17:46:39.581Z,17.40
2018-06-13T17:51:42.801Z,17.40
2018-06-13T17:56:47.054Z,17.30
2018-06-13T18:01:50.381Z,17.30
2018-06-13T18:06:53.600Z,17.30
2018-06-13T18:11:56.777Z,17.20
2018-06-13T18:17:06.064Z,17.20
2018-06-13T18:22:09.251Z,17.20
2018-06-13T18:27:12.621Z,17.10
2018-06-13T18:32:15.830Z,17.00
2018-06-13T18:37:21.137Z,17.00
2018-06-13T18:42:24.340Z,16.90
2018-06-13T18:47:27.529Z,17.00
2018-06-13T19:00:47.444Z,17.10
2018-06-13T19:05:50.633Z,17.10
2018-06-13T19:10:57.605Z,17.00
2018-06-13T19:16:00.802Z,17.00
2018-06-13T19:21:04.109Z,16.60
2018-06-13T19:26:07.351Z,16.30
2018-06-13T19:31:37.182Z,16.10
2018-06-13T19:36:40.379Z,16.00
2018-06-13T19:41:43.616Z,15.80
2018-06-13T19:46:48.835Z,15.80
2018-06-13T19:51:52.043Z,15.70
2018-06-13T19:56:55.258Z,15.70
2018-06-13T20:01:58.426Z,15.50
2018-06-13T20:07:01.633Z,15.50
2018-06-13T20:12:10.314Z,15.40
2018-06-13T20:22:22.018Z,15.10
2018-06-13T20:27:30.503Z,15.00
2018-06-13T20:32:33.670Z,15.10
2018-06-13T20:37:36.838Z,15.10
2018-06-13T20:42:40.432Z,14.90
2018-06-13T20:47:43.585Z,14.70
2018-06-13T20:52:46.770Z,14.70
2018-06-13T20:57:49.974Z,14.70
2018-06-13T21:02:53.162Z,14.80
2018-06-13T21:07:56.339Z,14.80
2018-06-13T21:12:59.553Z,14.60
2018-06-13T21:18:02.722Z,14.50
2018-06-13T21:23:05.899Z,14.60
2018-06-13T21:28:09.081Z,14.40
2018-06-13T21:33:12.291Z,14.30
2018-06-13T21:38:15.464Z,14.20
2018-06-13T21:43:18.733Z,14.10
2018-06-13T21:48:21.894Z,14.00
2018-06-13T21:53:25.141Z,14.10
2018-06-13T21:58:28.305Z,14.00
2018-06-13T22:03:31.537Z,14.00
2018-06-13T22:08:34.722Z,13.80
2018-06-13T22:13:37.986Z,13.70
2018-06-13T22:18:41.882Z,13.80
2018-06-13T22:23:46.841Z,13.60
2018-06-13T22:28:50.019Z,13.40
2018-06-13T22:33:53.430Z,13.30
2018-06-13T22:39:02.461Z,13.30
2018-06-13T22:44:05.700Z,13.30
2018-06-13T22:49:08.849Z,13.20
2018-06-13T22:54:12.044Z,13.20
2018-06-13T22:59:15.221Z,13.10
2018-06-13T23:04:18.389Z,13.00
2018-06-13T23:09:21.541Z,13.10
2018-06-13T23:14:27.785Z,13.00
2018-06-13T23:19:31.028Z,13.00
2018-06-13T23:24:34.202Z,12.70
2018-06-13T23:29:37.373Z,12.90
2018-06-13T23:34:40.550Z,12.80
2018-06-13T23:39:44.757Z,13.00
2018-06-13T23:44:47.926Z,13.10
2018-06-13T23:49:51.133Z,13.10
2018-06-13T23:54:54.277Z,13.00
2018-06-13T23:59:57.666Z,13.00
